createdAt,value
2023-02-19T00:02:15.119Z,26.52
2023-02-19T00:04:44.529Z,28.42
2023-02-19T00:07:13.984Z,27.23
2023-02-19T00:09:43.231Z,28.05
2023-02-19T00:12:12.509Z,34.22
2023-02-19T00:14:41.906Z,28.52
2023-02-19T00:17:11.239Z,30.65
2023-02-19T00:19:40.506Z,25.77
2023-02-19T00:22:09.768Z,25.13
2023-02-19T00:24:39.074Z,27.17
2023-02-19T00:27:08.323Z,21.13
2023-02-19T00:29:37.636Z,23.40
2023-02-19T00:32:07.078Z,27.02
2023-02-19T00:34:36.398Z,20.55
2023-02-19T00:37:05.837Z,27.42
2023-02-19T00:39:35.095Z,19.50
2023-02-19T00:42:04.344Z,20.38
2023-02-19T00:44:33.618Z,21.85
2023-02-19T00:47:02.924Z,23.02
2023-02-19T00:49:33.612Z,21.15
2023-02-19T00:52:02.938Z,20.02
2023-02-19T00:54:32.221Z,29.42
2023-02-19T00:57:01.529Z,24.88
2023-02-19T00:59:30.814Z,22.67
2023-02-19T01:02:00.152Z,19.52
2023-02-19T01:04:29.530Z,21.27
2023-02-19T01:06:58.802Z,20.80
2023-02-19T01:09:28.275Z,22.63
2023-02-19T01:11:57.499Z,19.33
2023-02-19T01:14:26.759Z,21.75
2023-02-19T01:16:56.006Z,19.63
2023-02-19T01:19:25.237Z,19.48
2023-02-19T01:21:54.536Z,15.55
2023-02-19T01:24:23.812Z,15.90
2023-02-19T01:26:53.081Z,18.50
2023-02-19T01:29:22.382Z,20.00
2023-02-19T01:31:51.733Z,16.48
2023-02-19T01:34:21.060Z,16.20
2023-02-19T01:36:50.304Z,13.82
2023-02-19T01:39:19.556Z,14.80
2023-02-19T01:41:49.048Z,20.13
2023-02-19T01:44:18.481Z,20.33
2023-02-19T01:46:51.525Z,18.63
2023-02-19T01:49:26.411Z,15.57
2023-02-19T01:51:59.152Z,15.32
2023-02-19T01:54:30.624Z,14.60
2023-02-19T01:57:00.506Z,11.90
2023-02-19T01:59:29.791Z,14.10
2023-02-19T02:01:59.219Z,10.63
2023-02-19T02:04:28.519Z,17.92
2023-02-19T02:06:59.108Z,15.02
2023-02-19T02:09:42.630Z,12.50
2023-02-19T02:12:12.831Z,25.17
2023-02-19T02:14:44.195Z,10.30
2023-02-19T02:17:22.729Z,18.30
2023-02-19T02:20:10.755Z,16.90
2023-02-19T02:22:58.103Z,15.63
2023-02-19T02:25:33.697Z,13.32
2023-02-19T02:28:09.709Z,15.65
2023-02-19T02:30:54.381Z,13.40
2023-02-19T02:33:45.023Z,18.08
2023-02-19T02:36:26.231Z,22.60
2023-02-19T02:38:55.922Z,17.60
2023-02-19T02:41:25.981Z,22.02
2023-02-19T02:43:55.240Z,17.45
2023-02-19T02:46:31.113Z,18.90
2023-02-19T02:49:02.640Z,19.17
2023-02-19T02:51:38.983Z,24.73
2023-02-19T02:54:29.181Z,20.80
2023-02-19T02:56:59.579Z,26.67
2023-02-19T02:59:34.698Z,20.85
2023-02-19T03:02:14.823Z,14.27
2023-02-19T03:05:02.984Z,15.50
2023-02-19T03:07:36.821Z,21.15
2023-02-19T03:10:07.987Z,19.30
2023-02-19T03:12:50.940Z,14.32
2023-02-19T03:15:33.116Z,12.85
2023-02-19T03:18:16.785Z,22.30
2023-02-19T03:20:49.305Z,14.70
2023-02-19T03:23:18.894Z,17.88
2023-02-19T03:26:02.189Z,18.48
2023-02-19T03:29:11.325Z,14.23
2023-02-19T03:31:44.541Z,18.20
2023-02-19T03:34:17.669Z,20.30
2023-02-19T03:36:49.287Z,20.40
2023-02-19T03:41:56.554Z,20.95
2023-02-19T03:44:35.247Z,18.63
2023-02-19T03:47:26.633Z,17.60
2023-02-19T03:49:58.716Z,11.60
2023-02-19T03:52:46.991Z,10.30
2023-02-19T03:55:29.109Z,20.60
2023-02-19T03:58:14.776Z,15.07
2023-02-19T04:00:44.775Z,11.73
2023-02-19T04:03:18.859Z,15.10
2023-02-19T04:05:51.527Z,15.68
2023-02-19T04:08:22.389Z,19.92
2023-02-19T04:10:57.732Z,13.63
2023-02-19T04:13:41.346Z,12.95
2023-02-19T04:16:12.661Z,12.95
2023-02-19T04:18:43.804Z,13.48
2023-02-19T04:21:13.412Z,11.20
2023-02-19T04:23:44.959Z,13.02
2023-02-19T04:26:15.115Z,11.05
2023-02-19T04:28:44.786Z,13.52
2023-02-19T04:31:14.553Z,11.35
2023-02-19T04:33:44.040Z,20.48
2023-02-19T04:36:13.782Z,20.27
2023-02-19T04:38:43.015Z,12.50
2023-02-19T04:41:12.739Z,15.10
2023-02-19T04:43:42.208Z,11.88
2023-02-19T04:46:11.507Z,15.05
2023-02-19T04:48:42.822Z,10.63
2023-02-19T04:51:12.558Z,15.27
2023-02-19T04:53:42.826Z,11.57
2023-02-19T04:56:13.178Z,12.30
2023-02-19T04:58:43.202Z,8.27
2023-02-19T05:01:13.287Z,12.43
2023-02-19T05:03:43.124Z,10.48
2023-02-19T05:06:16.024Z,13.48
2023-02-19T05:08:45.255Z,16.05
2023-02-19T05:11:15.426Z,18.88
2023-02-19T05:13:44.741Z,12.32
2023-02-19T05:16:16.213Z,15.18
2023-02-19T05:18:46.445Z,12.48
2023-02-19T05:21:15.890Z,10.07
2023-02-19T05:23:45.256Z,9.95
2023-02-19T05:26:19.775Z,13.07
2023-02-19T05:28:49.922Z,11.63
2023-02-19T05:31:19.381Z,11.52
2023-02-19T05:33:51.270Z,9.75
2023-02-19T05:36:21.190Z,16.30
2023-02-19T05:38:50.939Z,9.63
2023-02-19T05:41:21.397Z,11.10
2023-02-19T05:43:51.132Z,13.02
2023-02-19T05:46:22.349Z,13.27
2023-02-19T05:48:52.334Z,13.52
2023-02-19T05:51:22.532Z,14.95
2023-02-19T05:53:52.044Z,12.13
2023-02-19T05:56:27.346Z,15.23
2023-02-19T05:58:57.418Z,11.40
2023-02-19T06:01:28.160Z,14.70
2023-02-19T06:03:57.963Z,19.35
2023-02-19T06:06:28.091Z,11.85
2023-02-19T06:08:57.483Z,15.43
2023-02-19T06:11:26.984Z,14.50
2023-02-19T06:13:56.211Z,16.45
2023-02-19T06:16:25.529Z,16.63
2023-02-19T06:18:57.483Z,8.13
2023-02-19T06:21:26.739Z,15.88
2023-02-19T06:23:55.986Z,14.60
2023-02-19T06:26:26.289Z,21.70
2023-02-19T06:28:56.302Z,15.38
2023-02-19T06:31:26.093Z,11.90
2023-02-19T06:33:55.456Z,13.70
2023-02-19T06:36:27.516Z,9.18
2023-02-19T06:38:56.821Z,10.20
2023-02-19T06:41:26.033Z,9.50
2023-02-19T06:43:55.278Z,13.82
2023-02-19T06:46:24.504Z,8.50
2023-02-19T06:48:54.203Z,19.95
2023-02-19T06:51:26.438Z,10.73
2023-02-19T06:53:56.303Z,12.30
2023-02-19T06:56:27.245Z,16.10
2023-02-19T06:58:57.418Z,14.52
2023-02-19T07:01:26.799Z,12.65
2023-02-19T07:03:56.115Z,12.68
2023-02-19T07:06:26.285Z,9.85
2023-02-19T07:08:56.823Z,11.60
2023-02-19T07:11:26.502Z,14.30
2023-02-19T07:13:59.232Z,19.38
2023-02-19T07:16:29.044Z,11.07
2023-02-19T07:19:02.001Z,12.00
2023-02-19T07:21:31.788Z,17.05
2023-02-19T07:24:01.103Z,14.55
2023-02-19T07:26:30.419Z,10.90
2023-02-19T07:28:59.675Z,16.77
2023-02-19T07:31:29.082Z,11.77
2023-02-19T07:33:58.784Z,14.43
2023-02-19T07:36:28.179Z,15.50
2023-02-19T07:38:58.310Z,11.15
2023-02-19T07:41:28.287Z,14.15
2023-02-19T07:46:30.073Z,9.82
2023-02-19T07:48:59.364Z,16.27
2023-02-19T07:51:28.738Z,11.70
2023-02-19T07:53:58.015Z,9.73
2023-02-19T07:56:28.844Z,11.02
2023-02-19T07:58:58.064Z,11.90
2023-02-19T08:01:47.865Z,14.80
2023-02-19T08:04:14.986Z,12.85
2023-02-19T08:06:44.700Z,10.60
2023-02-19T08:09:14.362Z,26.27
2023-02-19T08:11:56.118Z,11.75
2023-02-19T08:14:29.015Z,13.50
2023-02-19T08:16:58.738Z,9.63
2023-02-19T08:19:27.981Z,14.40
2023-02-19T08:21:57.299Z,10.35
2023-02-19T08:24:26.577Z,11.02
2023-02-19T08:26:55.778Z,7.82
2023-02-19T08:29:24.989Z,10.75
2023-02-19T08:31:54.274Z,13.55
2023-02-19T08:34:23.555Z,12.70
2023-02-19T08:36:52.771Z,8.25
2023-02-19T08:39:22.063Z,11.32
2023-02-19T08:41:51.297Z,12.05
2023-02-19T08:44:20.592Z,9.13
2023-02-19T08:46:49.961Z,12.93
2023-02-19T08:49:19.223Z,11.43
2023-02-19T08:51:48.499Z,14.82
2023-02-19T08:54:17.751Z,14.43
2023-02-19T08:56:47.030Z,9.65
2023-02-19T08:59:16.344Z,13.73
2023-02-19T09:01:45.675Z,13.23
2023-02-19T09:04:15.345Z,11.45
2023-02-19T09:06:44.646Z,13.00
2023-02-19T09:09:13.952Z,9.93
2023-02-19T09:11:43.337Z,13.18
2023-02-19T09:14:12.633Z,12.77
2023-02-19T09:16:41.957Z,12.30
2023-02-19T09:19:11.265Z,12.13
2023-02-19T09:21:40.603Z,9.57
2023-02-19T09:24:12.857Z,9.18
2023-02-19T09:26:42.174Z,9.45
2023-02-19T09:29:11.485Z,11.43
2023-02-19T09:31:40.833Z,9.18
2023-02-19T09:34:11.809Z,6.55
2023-02-19T09:36:41.478Z,5.47
2023-02-19T09:39:12.637Z,9.60
2023-02-19T09:41:45.396Z,12.27
2023-02-19T09:44:16.815Z,7.15
2023-02-19T09:46:48.636Z,13.80
2023-02-19T09:49:41.236Z,10.75
2023-02-19T09:52:12.472Z,10.82
2023-02-19T09:54:42.534Z,6.25
2023-02-19T09:57:19.141Z,8.25
2023-02-19T09:59:50.941Z,6.78
2023-02-19T10:02:20.175Z,8.55
2023-02-19T10:04:51.108Z,8.18
2023-02-19T10:07:39.268Z,10.30
2023-02-19T10:10:17.897Z,6.38
2023-02-19T10:12:51.754Z,9.15
2023-02-19T10:15:29.951Z,6.25
2023-02-19T10:17:59.255Z,6.68
2023-02-19T10:20:29.289Z,8.70
2023-02-19T10:23:08.894Z,6.88
2023-02-19T10:25:45.632Z,4.93
2023-02-19T10:28:22.434Z,6.88
2023-02-19T10:30:55.532Z,4.30
2023-02-19T10:33:25.377Z,6.80
2023-02-19T10:35:55.764Z,6.60
2023-02-19T10:38:28.275Z,5.00
2023-02-19T10:41:03.181Z,4.35
2023-02-19T10:43:37.167Z,5.63
2023-02-19T10:46:25.914Z,5.50
2023-02-19T10:48:59.896Z,7.60
2023-02-19T10:51:34.100Z,7.75
2023-02-19T10:54:10.674Z,7.97
2023-02-19T10:56:41.477Z,6.10
2023-02-19T10:59:18.212Z,7.05
2023-02-19T11:01:57.455Z,4.32
2023-02-19T11:04:27.377Z,4.95
2023-02-19T11:06:57.467Z,4.38
2023-02-19T11:09:56.252Z,4.65
2023-02-19T11:12:27.549Z,6.13
2023-02-19T11:14:57.084Z,4.90
2023-02-19T11:17:27.646Z,4.07
2023-02-19T11:20:00.673Z,3.20
2023-02-19T11:22:46.921Z,8.85
2023-02-19T11:25:17.117Z,5.80
2023-02-19T11:28:02.694Z,6.43
2023-02-19T11:30:41.033Z,5.63
2023-02-19T11:33:16.496Z,6.22
2023-02-19T11:35:53.384Z,5.38
2023-02-19T11:38:22.987Z,3.60
2023-02-19T11:40:59.187Z,20.48
2023-02-19T11:43:28.467Z,5.88
2023-02-19T11:46:15.171Z,6.18
2023-02-19T11:49:03.198Z,5.07
2023-02-19T11:51:52.782Z,4.47
2023-02-19T11:54:40.728Z,3.92
2023-02-19T11:57:21.509Z,5.72
2023-02-19T11:59:53.527Z,6.18
2023-02-19T12:02:25.920Z,8.10
2023-02-19T12:05:04.437Z,7.90
2023-02-19T12:07:33.796Z,4.72
2023-02-19T12:10:13.601Z,5.97
2023-02-19T12:12:49.095Z,7.55
2023-02-19T12:15:20.136Z,7.20
2023-02-19T12:17:49.419Z,9.75
2023-02-19T12:20:44.854Z,9.25
2023-02-19T12:23:32.942Z,7.25
2023-02-19T12:26:08.709Z,7.38
2023-02-19T12:28:53.493Z,10.00
2023-02-19T12:31:43.456Z,7.47
2023-02-19T12:34:15.553Z,7.30
2023-02-19T12:36:49.493Z,8.85
2023-02-19T12:39:26.230Z,7.38
2023-02-19T12:42:06.125Z,8.68
2023-02-19T12:44:41.479Z,9.18
2023-02-19T12:47:11.638Z,5.30
2023-02-19T12:49:44.740Z,10.55
2023-02-19T12:52:26.873Z,9.90
2023-02-19T12:55:01.502Z,11.13
2023-02-19T12:57:34.008Z,4.30
2023-02-19T13:00:07.599Z,6.35
2023-02-19T13:02:58.700Z,7.93
2023-02-19T13:05:34.488Z,11.20
2023-02-19T13:08:22.514Z,7.95
2023-02-19T13:11:01.441Z,4.90
2023-02-19T13:13:33.865Z,11.48
2023-02-19T13:18:38.111Z,6.75
2023-02-19T13:21:07.949Z,4.78
2023-02-19T13:23:51.385Z,4.28
2023-02-19T13:26:26.685Z,6.60
2023-02-19T13:28:59.437Z,9.50
2023-02-19T13:31:47.497Z,9.13
2023-02-19T13:34:25.672Z,9.82
2023-02-19T13:36:55.834Z,7.47
2023-02-19T13:39:26.590Z,7.88
2023-02-19T13:41:59.114Z,5.40
2023-02-19T13:44:34.299Z,6.13
2023-02-19T13:47:06.159Z,8.63
2023-02-19T13:49:35.459Z,5.25
2023-02-19T13:52:23.662Z,9.32
2023-02-19T13:54:52.982Z,6.32
2023-02-19T13:57:28.577Z,5.38
2023-02-19T13:59:59.249Z,6.10
2023-02-19T14:02:34.088Z,3.25
2023-02-19T14:05:03.734Z,4.65
2023-02-19T14:07:51.240Z,2.35
2023-02-19T14:10:40.496Z,5.63
2023-02-19T14:13:10.926Z,1.52
2023-02-19T14:15:46.958Z,1.67
2023-02-19T14:18:35.112Z,5.55
2023-02-19T14:21:10.164Z,2.63
2023-02-19T14:23:39.915Z,1.75
2023-02-19T14:26:09.514Z,1.80
2023-02-19T14:28:47.358Z,3.05
2023-02-19T14:31:22.820Z,3.28
2023-02-19T14:33:53.453Z,2.60
2023-02-19T14:36:44.255Z,1.52
2023-02-19T14:39:18.254Z,4.35
2023-02-19T14:41:49.734Z,2.65
2023-02-19T14:44:28.007Z,4.00
2023-02-19T14:47:00.145Z,4.45
2023-02-19T14:49:32.478Z,6.53
2023-02-19T14:52:08.162Z,9.70
2023-02-19T14:54:40.613Z,10.55
2023-02-19T14:57:15.465Z,7.32
2023-02-19T14:59:54.133Z,8.38
2023-02-19T15:02:26.038Z,11.13
2023-02-19T15:04:55.803Z,10.05
2023-02-19T15:07:32.945Z,8.30
2023-02-19T15:10:07.530Z,8.25
2023-02-19T15:12:41.254Z,8.50
2023-02-19T15:15:10.903Z,11.90
2023-02-19T15:17:40.530Z,10.55
2023-02-19T15:20:12.799Z,9.13
2023-02-19T15:22:43.071Z,7.20
2023-02-19T15:25:18.551Z,8.60
2023-02-19T15:27:47.861Z,5.65
2023-02-19T15:30:20.404Z,6.63
2023-02-19T15:32:56.729Z,6.82
2023-02-19T15:35:26.500Z,5.20
2023-02-19T15:37:56.558Z,4.82
2023-02-19T15:40:33.648Z,5.13
2023-02-19T15:43:03.141Z,4.25
2023-02-19T15:45:36.074Z,4.20
2023-02-19T15:48:08.893Z,5.30
2023-02-19T15:50:40.156Z,5.15
2023-02-19T15:53:15.278Z,3.58
2023-02-19T15:55:48.070Z,4.45
2023-02-19T15:58:27.794Z,3.90
2023-02-19T16:00:58.866Z,3.90
2023-02-19T16:03:29.076Z,9.27
2023-02-19T16:06:01.366Z,5.80
2023-02-19T16:08:33.730Z,7.45
2023-02-19T16:11:04.273Z,7.65
2023-02-19T16:13:35.044Z,7.72
2023-02-19T16:16:17.788Z,11.50
2023-02-19T16:18:48.797Z,10.30
2023-02-19T16:21:19.609Z,7.72
2023-02-19T16:23:51.165Z,9.10
2023-02-19T16:26:20.794Z,8.15
2023-02-19T16:28:53.750Z,8.27
2023-02-19T16:31:24.350Z,8.60
2023-02-19T16:33:54.028Z,6.55
2023-02-19T16:36:32.207Z,6.95
2023-02-19T16:39:12.312Z,3.78
2023-02-19T16:41:50.753Z,4.18
2023-02-19T16:44:23.205Z,4.72
2023-02-19T16:49:21.917Z,5.38
2023-02-19T16:51:51.235Z,6.03
2023-02-19T16:54:20.570Z,5.03
2023-02-19T16:56:49.947Z,6.47
2023-02-19T16:59:19.260Z,5.40
2023-02-19T17:01:48.639Z,4.28
2023-02-19T17:04:17.956Z,5.25
2023-02-19T17:06:47.423Z,5.43
2023-02-19T17:09:16.753Z,7.03
2023-02-19T17:11:46.031Z,7.22
2023-02-19T17:14:15.313Z,4.05
2023-02-19T17:16:44.717Z,4.20
2023-02-19T17:19:18.765Z,3.53
2023-02-19T17:21:48.852Z,5.30
2023-02-19T17:24:18.403Z,5.90
2023-02-19T17:26:47.668Z,5.22
2023-02-19T17:29:18.450Z,12.02
2023-02-19T17:31:47.857Z,7.65
2023-02-19T17:34:17.203Z,4.65
2023-02-19T17:36:47.003Z,5.95
2023-02-19T17:39:17.822Z,4.55
2023-02-19T17:41:47.129Z,10.45
2023-02-19T17:44:16.492Z,4.50
2023-02-19T17:46:45.797Z,6.10
2023-02-19T17:49:15.424Z,6.13
2023-02-19T17:51:44.722Z,4.80
2023-02-19T17:54:13.984Z,9.02
2023-02-19T17:56:46.062Z,7.18
2023-02-19T17:59:17.999Z,6.57
2023-02-19T18:01:47.804Z,3.70
2023-02-19T18:04:17.078Z,5.40
2023-02-19T18:06:48.134Z,5.55
2023-02-19T18:09:19.439Z,8.65
2023-02-19T18:11:49.416Z,6.45
2023-02-19T18:14:18.785Z,5.65
2023-02-19T18:16:51.645Z,6.10
2023-02-19T18:19:22.877Z,6.72
2023-02-19T18:21:52.151Z,5.82
2023-02-19T18:24:21.524Z,6.28
2023-02-19T18:26:50.777Z,4.90
2023-02-19T18:29:21.927Z,9.52
2023-02-19T18:31:51.331Z,7.97
2023-02-19T18:34:22.025Z,7.70
2023-02-19T18:36:52.000Z,7.32
2023-02-19T18:39:21.303Z,8.45
2023-02-19T18:41:51.156Z,7.30
2023-02-19T18:44:22.012Z,6.50
2023-02-19T18:46:51.841Z,5.30
2023-02-19T18:49:21.263Z,7.32
2023-02-19T18:51:50.576Z,6.38
2023-02-19T18:54:20.109Z,5.38
2023-02-19T18:56:49.799Z,7.43
2023-02-19T18:59:19.193Z,5.88
2023-02-19T19:01:48.509Z,7.30
2023-02-19T19:04:17.925Z,6.47
2023-02-19T19:06:47.314Z,5.13
2023-02-19T19:09:16.614Z,6.03
2023-02-19T19:11:46.679Z,6.43
2023-02-19T19:14:15.977Z,6.28
2023-02-19T19:16:45.278Z,5.70
2023-02-19T19:19:14.837Z,5.75
2023-02-19T19:21:44.099Z,6.57
2023-02-19T19:24:14.893Z,4.43
2023-02-19T19:26:47.701Z,4.45
2023-02-19T19:29:17.805Z,5.43
2023-02-19T19:31:47.292Z,5.05
2023-02-19T19:34:16.660Z,3.67
2023-02-19T19:36:45.959Z,6.47
2023-02-19T19:39:15.485Z,5.05
2023-02-19T19:41:44.771Z,4.88
2023-02-19T19:44:15.092Z,7.93
2023-02-19T19:46:47.573Z,9.10
2023-02-19T19:49:26.214Z,9.65
2023-02-19T19:51:58.527Z,10.75
2023-02-19T19:56:57.139Z,11.35
2023-02-19T19:59:26.522Z,10.00
2023-02-19T20:01:57.212Z,8.45
2023-02-19T20:04:27.769Z,9.23
2023-02-19T20:06:57.726Z,8.00
2023-02-19T20:09:29.141Z,7.68
2023-02-19T20:11:58.861Z,7.73
2023-02-19T20:14:28.475Z,9.15
2023-02-19T20:16:57.943Z,6.80
2023-02-19T20:19:27.188Z,8.35
2023-02-19T20:21:56.528Z,7.45
2023-02-19T20:24:28.698Z,6.00
2023-02-19T20:27:02.147Z,10.80
2023-02-19T20:29:33.031Z,6.22
2023-02-19T20:32:03.902Z,6.80
2023-02-19T20:34:33.284Z,9.40
2023-02-19T20:37:02.608Z,8.45
2023-02-19T20:39:31.964Z,8.43
2023-02-19T20:42:02.136Z,5.75
2023-02-19T20:44:31.878Z,6.32
2023-02-19T20:47:01.828Z,6.43
2023-02-19T20:49:32.595Z,5.97
2023-02-19T20:52:03.301Z,8.52
2023-02-19T20:54:34.076Z,11.38
2023-02-19T20:57:04.708Z,7.10
2023-02-19T20:59:35.561Z,7.38
2023-02-19T21:02:09.760Z,4.38
2023-02-19T21:04:40.641Z,4.90
2023-02-19T21:07:09.894Z,4.55
2023-02-19T21:09:39.176Z,5.90
2023-02-19T21:12:08.514Z,6.97
2023-02-19T21:14:37.833Z,5.68
2023-02-19T21:17:08.191Z,5.30
2023-02-19T21:19:37.431Z,8.75
2023-02-19T21:22:06.678Z,6.57
2023-02-19T21:24:35.991Z,5.93
2023-02-19T21:27:05.271Z,6.60
2023-02-19T21:29:34.518Z,7.22
2023-02-19T21:32:05.763Z,5.75
2023-02-19T21:34:35.095Z,4.13
2023-02-19T21:37:04.436Z,3.88
2023-02-19T21:39:34.718Z,6.60
2023-02-19T21:42:04.010Z,7.65
2023-02-19T21:44:33.312Z,4.60
2023-02-19T21:47:02.911Z,5.05
2023-02-19T21:49:33.647Z,3.35
2023-02-19T21:52:02.916Z,5.13
2023-02-19T21:54:32.433Z,3.33
2023-02-19T21:57:04.254Z,3.70
2023-02-19T21:59:36.418Z,2.20
2023-02-19T22:02:05.715Z,3.00
2023-02-19T22:04:35.008Z,4.97
2023-02-19T22:07:04.523Z,3.42
2023-02-19T22:09:33.836Z,2.30
2023-02-19T22:12:03.171Z,6.00
2023-02-19T22:14:32.469Z,3.55
2023-02-19T22:17:01.748Z,4.85
2023-02-19T22:19:30.973Z,5.68
2023-02-19T22:22:00.281Z,2.90
2023-02-19T22:24:29.571Z,4.68
2023-02-19T22:26:59.276Z,4.30
2023-02-19T22:29:28.656Z,4.82
2023-02-19T22:31:58.096Z,8.20
2023-02-19T22:34:27.530Z,4.82
2023-02-19T22:36:56.817Z,5.05
2023-02-19T22:39:27.460Z,9.10
2023-02-19T22:41:56.971Z,7.00
2023-02-19T22:44:26.281Z,8.60
2023-02-19T22:46:59.132Z,7.53
2023-02-19T22:49:28.426Z,5.93
2023-02-19T22:52:16.100Z,8.02
2023-02-19T22:54:46.766Z,7.72
2023-02-19T22:57:16.082Z,7.05
2023-02-19T22:59:45.312Z,9.52
2023-02-19T23:02:14.744Z,9.32
2023-02-19T23:04:44.039Z,14.07
2023-02-19T23:07:13.333Z,14.13
2023-02-19T23:09:42.644Z,10.85
2023-02-19T23:12:13.335Z,11.45
2023-02-19T23:14:42.702Z,11.25
2023-02-19T23:17:12.123Z,17.77
2023-02-19T23:19:41.351Z,12.40
2023-02-19T23:22:11.065Z,16.63
2023-02-19T23:24:40.336Z,12.40
2023-02-19T23:27:09.818Z,12.75
2023-02-19T23:29:39.140Z,12.00
2023-02-19T23:32:08.412Z,12.18
2023-02-19T23:34:37.869Z,12.82
2023-02-19T23:37:07.127Z,13.35
2023-02-19T23:39:36.511Z,15.32
2023-02-19T23:42:05.817Z,14.27
2023-02-19T23:44:35.113Z,15.07
2023-02-19T23:47:04.388Z,16.83
2023-02-19T23:49:34.914Z,14.90
2023-02-19T23:52:04.167Z,12.10
2023-02-19T23:54:33.459Z,15.20
2023-02-19T23:57:02.732Z,12.95
2023-02-19T23:59:32.062Z,12.52
